Terminal Aerodrome Forecast
Issued by NWS Louisville, KY

Home | Current Version | Previous Version | Text Only | Print | Product List | Glossary On
Versions: 1 2 3 4 5 6 7 8 9 10 11 12 13 14 15 16 17 18 19 20 21 22 23 24 25 26
452
FTUS43 KLMK 150257 AAA
TAFLEX
TAF AMD
KLEX 150257Z 1503/1524 35004KT 4SM -DZ BR OVC004
      TEMPO 1503/1507 2SM -DZ BR OVC003
     FM150700 02004KT 2SM -DZ BR OVC003
      TEMPO 1510/1514 1/2SM FG OVC002
     FM151600 07005KT 2SM -DZ BR OVC006=

USA.gov is the U.S. government's official web portal to all federal, state and local government web resources and services.